sensor_id;sensor_type;location;lat;lon;timestamp;temperature;humidity
5457;DHT22;2751;49.802;9.944;2023-02-13T00:00:24;4.60;1.00
5457;DHT22;2751;49.802;9.944;2023-02-13T00:02:52;4.60;99.90
5457;DHT22;2751;49.802;9.944;2023-02-13T00:05:19;4.90;99.90
5457;DHT22;2751;49.802;9.944;2023-02-13T00:07:46;4.50;99.90
5457;DHT22;2751;49.802;9.944;2023-02-13T00:10:13;4.50;99.90
5457;DHT22;2751;49.802;9.944;2023-02-13T00:12:40;4.40;99.90
5457;DHT22;2751;49.802;9.944;2023-02-13T00:15:07;4.30;99.90
5457;DHT22;2751;49.802;9.944;2023-02-13T00:17:35;4.30;99.90
5457;DHT22;2751;49.802;9.944;2023-02-13T00:20:04;4.20;99.90
5457;DHT22;2751;49.802;9.944;2023-02-13T00:22:34;4.20;99.90
5457;DHT22;2751;49.802;9.944;2023-02-13T00:25:01;4.10;99.90
5457;DHT22;2751;49.802;9.944;2023-02-13T00:27:28;4.20;99.90
5457;DHT22;2751;49.802;9.944;2023-02-13T00:29:55;4.00;99.90
5457;DHT22;2751;49.802;9.944;2023-02-13T00:32:21;4.00;99.90
5457;DHT22;2751;49.802;9.944;2023-02-13T00:34:48;3.90;99.90
5457;DHT22;2751;49.802;9.944;2023-02-13T00:37:17;3.90;99.90
5457;DHT22;2751;49.802;9.944;2023-02-13T00:39:43;3.80;99.90
5457;DHT22;2751;49.802;9.944;2023-02-13T00:42:10;3.80;99.90
5457;DHT22;2751;49.802;9.944;2023-02-13T00:44:37;3.70;99.90
5457;DHT22;2751;49.802;9.944;2023-02-13T00:47:04;3.70;99.90
5457;DHT22;2751;49.802;9.944;2023-02-13T00:49:31;3.60;99.90
5457;DHT22;2751;49.802;9.944;2023-02-13T00:51:57;3.60;99.90
5457;DHT22;2751;49.802;9.944;2023-02-13T00:54:26;3.60;99.90
5457;DHT22;2751;49.802;9.944;2023-02-13T00:56:53;3.50;99.90
5457;DHT22;2751;49.802;9.944;2023-02-13T00:59:19;3.50;99.90
5457;DHT22;2751;49.802;9.944;2023-02-13T01:01:46;3.40;99.90
5457;DHT22;2751;49.802;9.944;2023-02-13T01:04:13;3.40;99.90
5457;DHT22;2751;49.802;9.944;2023-02-13T01:06:40;3.70;1.00
5457;DHT22;2751;49.802;9.944;2023-02-13T01:09:07;3.40;1.00
5457;DHT22;2751;49.802;9.944;2023-02-13T01:11:35;3.30;1.00
5457;DHT22;2751;49.802;9.944;2023-02-13T01:14:02;3.30;1.00
5457;DHT22;2751;49.802;9.944;2023-02-13T01:16:29;3.30;1.00
5457;DHT22;2751;49.802;9.944;2023-02-13T01:18:56;3.20;1.00
5457;DHT22;2751;49.802;9.944;2023-02-13T01:21:22;3.20;1.00
5457;DHT22;2751;49.802;9.944;2023-02-13T01:23:49;3.20;1.00
5457;DHT22;2751;49.802;9.944;2023-02-13T01:26:18;3.10;1.00
5457;DHT22;2751;49.802;9.944;2023-02-13T01:28:46;3.40;1.00
5457;DHT22;2751;49.802;9.944;2023-02-13T01:31:13;3.00;1.00
5457;DHT22;2751;49.802;9.944;2023-02-13T01:33:40;3.00;1.00
5457;DHT22;2751;49.802;9.944;2023-02-13T01:36:09;3.00;1.00
5457;DHT22;2751;49.802;9.944;2023-02-13T01:38:37;2.90;1.00
5457;DHT22;2751;49.802;9.944;2023-02-13T01:41:04;2.90;99.90
5457;DHT22;2751;49.802;9.944;2023-02-13T01:43:51;2.90;99.90
5457;DHT22;2751;49.802;9.944;2023-02-13T01:46:22;2.70;99.90
5457;DHT22;2751;49.802;9.944;2023-02-13T01:48:52;2.70;1.00
5457;DHT22;2751;49.802;9.944;2023-02-13T01:51:22;3.00;1.00
5457;DHT22;2751;49.802;9.944;2023-02-13T01:53:55;2.50;1.00
5457;DHT22;2751;49.802;9.944;2023-02-13T01:56:26;2.50;1.00
5457;DHT22;2751;49.802;9.944;2023-02-13T01:58:59;2.50;1.00
5457;DHT22;2751;49.802;9.944;2023-02-13T02:01:27;2.50;1.00
5457;DHT22;2751;49.802;9.944;2023-02-13T02:03:57;3.00;1.00
5457;DHT22;2751;49.802;9.944;2023-02-13T02:06:29;2.50;1.00
5457;DHT22;2751;49.802;9.944;2023-02-13T02:09:02;2.50;1.00
5457;DHT22;2751;49.802;9.944;2023-02-13T02:11:34;2.50;1.00
5457;DHT22;2751;49.802;9.944;2023-02-13T02:14:03;2.60;1.00
5457;DHT22;2751;49.802;9.944;2023-02-13T02:16:31;3.00;1.00
5457;DHT22;2751;49.802;9.944;2023-02-13T02:18:58;2.60;1.00
5457;DHT22;2751;49.802;9.944;2023-02-13T02:31:16;2.60;1.00
5457;DHT22;2751;49.802;9.944;2023-02-13T02:33:53;3.00;1.00
5457;DHT22;2751;49.802;9.944;2023-02-13T02:36:36;2.70;1.00
5457;DHT22;2751;49.802;9.944;2023-02-13T02:39:11;2.80;1.00
5457;DHT22;2751;49.802;9.944;2023-02-13T02:41:52;3.10;1.00
5457;DHT22;2751;49.802;9.944;2023-02-13T02:44:32;2.70;1.00
5457;DHT22;2751;49.802;9.944;2023-02-13T02:47:09;2.80;1.00
5457;DHT22;2751;49.802;9.944;2023-02-13T02:50:22;2.70;1.00
5457;DHT22;2751;49.802;9.944;2023-02-13T02:52:58;2.80;1.00
5457;DHT22;2751;49.802;9.944;2023-02-13T02:55:34;2.80;1.00
5457;DHT22;2751;49.802;9.944;2023-02-13T02:58:09;3.30;1.00
5457;DHT22;2751;49.802;9.944;2023-02-13T03:00:56;2.80;1.00
5457;DHT22;2751;49.802;9.944;2023-02-13T03:03:43;3.10;1.00
5457;DHT22;2751;49.802;9.944;2023-02-13T03:06:33;3.00;1.00
5457;DHT22;2751;49.802;9.944;2023-02-13T03:09:05;2.90;1.00
5457;DHT22;2751;49.802;9.944;2023-02-13T03:11:55;2.90;1.00
5457;DHT22;2751;49.802;9.944;2023-02-13T03:14:41;3.00;1.00
5457;DHT22;2751;49.802;9.944;2023-02-13T03:17:10;3.30;1.00
5457;DHT22;2751;49.802;9.944;2023-02-13T03:20:02;3.00;1.00
5457;DHT22;2751;49.802;9.944;2023-02-13T03:23:11;3.40;1.00
5457;DHT22;2751;49.802;9.944;2023-02-13T03:26:23;3.00;1.00
5457;DHT22;2751;49.802;9.944;2023-02-13T03:29:04;2.90;1.00
5457;DHT22;2751;49.802;9.944;2023-02-13T03:31:53;3.00;1.00
5457;DHT22;2751;49.802;9.944;2023-02-13T03:34:27;3.30;1.00
5457;DHT22;2751;49.802;9.944;2023-02-13T03:37:17;2.90;1.00
5457;DHT22;2751;49.802;9.944;2023-02-13T03:40:08;3.20;1.00
5457;DHT22;2751;49.802;9.944;2023-02-13T03:42:41;2.90;1.00
5457;DHT22;2751;49.802;9.944;2023-02-13T03:45:13;2.90;1.00
5457;DHT22;2751;49.802;9.944;2023-02-13T03:48:00;2.90;1.00
5457;DHT22;2751;49.802;9.944;2023-02-13T03:50:35;3.30;1.00
5457;DHT22;2751;49.802;9.944;2023-02-13T03:53:07;2.90;1.00
5457;DHT22;2751;49.802;9.944;2023-02-13T03:55:39;3.20;1.00
5457;DHT22;2751;49.802;9.944;2023-02-13T03:58:28;3.00;1.00
5457;DHT22;2751;49.802;9.944;2023-02-13T04:01:16;3.00;1.00
5457;DHT22;2751;49.802;9.944;2023-02-13T04:03:49;3.00;1.00
5457;DHT22;2751;49.802;9.944;2023-02-13T04:06:21;3.00;1.00
5457;DHT22;2751;49.802;9.944;2023-02-13T04:08:49;2.90;1.00
5457;DHT22;2751;49.802;9.944;2023-02-13T04:11:22;2.90;1.00
5457;DHT22;2751;49.802;9.944;2023-02-13T04:13:54;3.20;1.00
5457;DHT22;2751;49.802;9.944;2023-02-13T04:16:28;3.00;1.00
5457;DHT22;2751;49.802;9.944;2023-02-13T04:18:57;3.00;1.00
5457;DHT22;2751;49.802;9.944;2023-02-13T04:21:26;2.90;1.00
5457;DHT22;2751;49.802;9.944;2023-02-13T04:23:53;2.90;1.00
5457;DHT22;2751;49.802;9.944;2023-02-13T04:26:22;2.80;1.00
5457;DHT22;2751;49.802;9.944;2023-02-13T04:28:49;2.70;1.00
5457;DHT22;2751;49.802;9.944;2023-02-13T04:31:16;2.60;1.00
5457;DHT22;2751;49.802;9.944;2023-02-13T04:33:43;2.60;1.00
5457;DHT22;2751;49.802;9.944;2023-02-13T04:36:10;2.50;1.00
5457;DHT22;2751;49.802;9.944;2023-02-13T04:38:36;2.50;1.00
5457;DHT22;2751;49.802;9.944;2023-02-13T04:41:04;2.50;1.00
5457;DHT22;2751;49.802;9.944;2023-02-13T04:43:32;2.50;1.00
5457;DHT22;2751;49.802;9.944;2023-02-13T04:45:59;2.50;1.00
5457;DHT22;2751;49.802;9.944;2023-02-13T04:48:26;2.50;1.00
5457;DHT22;2751;49.802;9.944;2023-02-13T04:50:52;2.40;1.00
5457;DHT22;2751;49.802;9.944;2023-02-13T04:53:19;2.90;1.00
5457;DHT22;2751;49.802;9.944;2023-02-13T04:55:46;2.60;3.10
5457;DHT22;2751;49.802;9.944;2023-02-13T04:58:13;2.40;4.30
5457;DHT22;2751;49.802;9.944;2023-02-13T05:00:41;2.40;3.60
5457;DHT22;2751;49.802;9.944;2023-02-13T05:03:11;2.80;4.30
5457;DHT22;2751;49.802;9.944;2023-02-13T05:05:38;2.30;4.30
5457;DHT22;2751;49.802;9.944;2023-02-13T05:08:06;2.30;6.00
5457;DHT22;2751;49.802;9.944;2023-02-13T05:10:33;2.30;8.60
5457;DHT22;2751;49.802;9.944;2023-02-13T05:13:01;2.30;11.30
5457;DHT22;2751;49.802;9.944;2023-02-13T05:15:28;2.80;13.40
5457;DHT22;2751;49.802;9.944;2023-02-13T05:17:56;2.40;14.60
5457;DHT22;2751;49.802;9.944;2023-02-13T05:20:23;2.40;14.50
5457;DHT22;2751;49.802;9.944;2023-02-13T05:22:52;2.40;13.70
5457;DHT22;2751;49.802;9.944;2023-02-13T05:25:38;2.30;11.90
5457;DHT22;2751;49.802;9.944;2023-02-13T05:28:06;2.30;12.00
5457;DHT22;2751;49.802;9.944;2023-02-13T05:30:53;2.70;10.70
5457;DHT22;2751;49.802;9.944;2023-02-13T05:33:21;2.20;10.50
5457;DHT22;2751;49.802;9.944;2023-02-13T05:35:47;2.20;13.60
5457;DHT22;2751;49.802;9.944;2023-02-13T05:38:15;2.20;12.00
5457;DHT22;2751;49.802;9.944;2023-02-13T05:40:42;2.30;13.10
5457;DHT22;2751;49.802;9.944;2023-02-13T05:43:09;2.20;15.40
5457;DHT22;2751;49.802;9.944;2023-02-13T05:45:36;2.20;16.40
5457;DHT22;2751;49.802;9.944;2023-02-13T05:48:03;2.20;17.30
5457;DHT22;2751;49.802;9.944;2023-02-13T05:50:31;2.50;17.30
5457;DHT22;2751;49.802;9.944;2023-02-13T05:52:58;2.20;19.10
5457;DHT22;2751;49.802;9.944;2023-02-13T05:55:24;2.30;21.30
5457;DHT22;2751;49.802;9.944;2023-02-13T05:57:55;2.30;20.80
5457;DHT22;2751;49.802;9.944;2023-02-13T06:00:22;2.20;22.80
5457;DHT22;2751;49.802;9.944;2023-02-13T06:02:50;2.20;23.70
5457;DHT22;2751;49.802;9.944;2023-02-13T06:05:16;2.60;26.60
5457;DHT22;2751;49.802;9.944;2023-02-13T06:07:45;2.20;26.70
5457;DHT22;2751;49.802;9.944;2023-02-13T06:10:11;2.30;28.50
5457;DHT22;2751;49.802;9.944;2023-02-13T06:12:38;2.20;29.70
5457;DHT22;2751;49.802;9.944;2023-02-13T06:15:06;2.20;29.70
5457;DHT22;2751;49.802;9.944;2023-02-13T06:17:33;2.20;30.40
5457;DHT22;2751;49.802;9.944;2023-02-13T06:20:00;2.20;32.80
5457;DHT22;2751;49.802;9.944;2023-02-13T06:22:27;2.20;35.70
5457;DHT22;2751;49.802;9.944;2023-02-13T06:24:55;2.20;35.70
5457;DHT22;2751;49.802;9.944;2023-02-13T06:27:22;2.20;37.10
5457;DHT22;2751;49.802;9.944;2023-02-13T06:29:49;2.10;36.00
5457;DHT22;2751;49.802;9.944;2023-02-13T06:32:15;2.10;36.20
5457;DHT22;2751;49.802;9.944;2023-02-13T06:34:42;2.20;38.90
5457;DHT22;2751;49.802;9.944;2023-02-13T06:37:09;2.30;42.00
5457;DHT22;2751;49.802;9.944;2023-02-13T06:39:36;2.30;43.90
5457;DHT22;2751;49.802;9.944;2023-02-13T06:42:04;2.40;44.30
5457;DHT22;2751;49.802;9.944;2023-02-13T06:44:31;2.40;44.50
5457;DHT22;2751;49.802;9.944;2023-02-13T06:46:58;2.40;44.70
5457;DHT22;2751;49.802;9.944;2023-02-13T06:49:25;2.60;44.50
5457;DHT22;2751;49.802;9.944;2023-02-13T06:51:52;2.50;43.60
5457;DHT22;2751;49.802;9.944;2023-02-13T06:54:18;2.50;38.60
5457;DHT22;2751;49.802;9.944;2023-02-13T06:56:45;2.40;31.10
5457;DHT22;2751;49.802;9.944;2023-02-13T06:59:13;2.30;20.70
5457;DHT22;2751;49.802;9.944;2023-02-13T07:01:40;2.70;19.50
5457;DHT22;2751;49.802;9.944;2023-02-13T07:04:07;2.30;18.00
5457;DHT22;2751;49.802;9.944;2023-02-13T07:06:34;2.40;14.30
5457;DHT22;2751;49.802;9.944;2023-02-13T07:09:01;2.50;10.70
5457;DHT22;2751;49.802;9.944;2023-02-13T07:11:29;2.50;7.70
5457;DHT22;2751;49.802;9.944;2023-02-13T07:13:56;2.90;2.20
5457;DHT22;2751;49.802;9.944;2023-02-13T07:16:24;2.60;1.00
5457;DHT22;2751;49.802;9.944;2023-02-13T07:18:51;2.60;1.00
5457;DHT22;2751;49.802;9.944;2023-02-13T07:21:17;2.60;1.00
5457;DHT22;2751;49.802;9.944;2023-02-13T07:23:44;2.60;1.00
5457;DHT22;2751;49.802;9.944;2023-02-13T07:26:11;2.60;1.00
5457;DHT22;2751;49.802;9.944;2023-02-13T07:28:38;3.00;1.00
5457;DHT22;2751;49.802;9.944;2023-02-13T07:31:05;3.10;1.00
5457;DHT22;2751;49.802;9.944;2023-02-13T07:33:34;2.70;1.00
5457;DHT22;2751;49.802;9.944;2023-02-13T07:36:01;2.60;1.00
5457;DHT22;2751;49.802;9.944;2023-02-13T07:38:28;3.10;1.00
5457;DHT22;2751;49.802;9.944;2023-02-13T07:40:57;2.70;1.00
5457;DHT22;2751;49.802;9.944;2023-02-13T07:43:24;2.70;1.00
5457;DHT22;2751;49.802;9.944;2023-02-13T07:45:53;2.90;1.00
5457;DHT22;2751;49.802;9.944;2023-02-13T07:48:21;2.30;1.00
5457;DHT22;2751;49.802;9.944;2023-02-13T07:50:49;2.40;1.00
5457;DHT22;2751;49.802;9.944;2023-02-13T07:53:16;2.50;1.00
5457;DHT22;2751;49.802;9.944;2023-02-13T07:55:43;2.40;1.00
5457;DHT22;2751;49.802;9.944;2023-02-13T07:58:10;2.20;1.00
5457;DHT22;2751;49.802;9.944;2023-02-13T08:00:36;2.10;1.00
5457;DHT22;2751;49.802;9.944;2023-02-13T08:03:03;2.20;1.00
5457;DHT22;2751;49.802;9.944;2023-02-13T08:05:31;2.40;1.00
5457;DHT22;2751;49.802;9.944;2023-02-13T08:08:00;2.50;1.00
5457;DHT22;2751;49.802;9.944;2023-02-13T08:10:27;2.40;99.90
5457;DHT22;2751;49.802;9.944;2023-02-13T08:13:13;2.30;99.90
5457;DHT22;2751;49.802;9.944;2023-02-13T08:15:40;2.20;99.90
5457;DHT22;2751;49.802;9.944;2023-02-13T08:18:09;2.40;99.90
5457;DHT22;2751;49.802;9.944;2023-02-13T08:20:36;2.40;99.90
5457;DHT22;2751;49.802;9.944;2023-02-13T08:23:05;2.50;99.90
5457;DHT22;2751;49.802;9.944;2023-02-13T08:25:32;2.60;99.90
5457;DHT22;2751;49.802;9.944;2023-02-13T08:28:00;3.00;99.90
5457;DHT22;2751;49.802;9.944;2023-02-13T08:30:27;2.80;26.90
5457;DHT22;2751;49.802;9.944;2023-02-13T08:32:54;2.90;1.00
5457;DHT22;2751;49.802;9.944;2023-02-13T08:35:21;3.10;1.00
5457;DHT22;2751;49.802;9.944;2023-02-13T08:37:51;2.70;1.00
5457;DHT22;2751;49.802;9.944;2023-02-13T08:40:19;2.50;1.00
5457;DHT22;2751;49.802;9.944;2023-02-13T08:42:46;2.40;99.90
5457;DHT22;2751;49.802;9.944;2023-02-13T08:45:13;2.30;1.00
5457;DHT22;2751;49.802;9.944;2023-02-13T08:47:40;2.30;1.00
5457;DHT22;2751;49.802;9.944;2023-02-13T08:50:07;2.30;99.90
5457;DHT22;2751;49.802;9.944;2023-02-13T08:52:34;2.60;99.90
5457;DHT22;2751;49.802;9.944;2023-02-13T08:55:01;2.70;29.20
5457;DHT22;2751;49.802;9.944;2023-02-13T08:57:30;2.90;1.00
5457;DHT22;2751;49.802;9.944;2023-02-13T08:59:57;3.00;99.90
5457;DHT22;2751;49.802;9.944;2023-02-13T09:02:23;3.00;99.90
5457;DHT22;2751;49.802;9.944;2023-02-13T09:04:50;2.70;99.90
5457;DHT22;2751;49.802;9.944;2023-02-13T09:07:17;3.30;99.90
5457;DHT22;2751;49.802;9.944;2023-02-13T09:09:44;3.00;99.90
5457;DHT22;2751;49.802;9.944;2023-02-13T09:12:11;3.00;18.40
5457;DHT22;2751;49.802;9.944;2023-02-13T09:14:39;3.10;1.00
5457;DHT22;2751;49.802;9.944;2023-02-13T09:17:06;3.30;99.90
5457;DHT22;2751;49.802;9.944;2023-02-13T09:19:33;3.30;99.90
5457;DHT22;2751;49.802;9.944;2023-02-13T09:22:00;3.40;99.90
5457;DHT22;2751;49.802;9.944;2023-02-13T09:24:27;3.40;99.90
5457;DHT22;2751;49.802;9.944;2023-02-13T09:26:54;3.40;99.90
5457;DHT22;2751;49.802;9.944;2023-02-13T09:29:21;3.50;99.90
5457;DHT22;2751;49.802;9.944;2023-02-13T09:31:51;3.40;99.90
5457;DHT22;2751;49.802;9.944;2023-02-13T09:34:18;3.90;1.00
5457;DHT22;2751;49.802;9.944;2023-02-13T09:36:45;3.80;1.00
5457;DHT22;2751;49.802;9.944;2023-02-13T09:39:12;3.80;51.70
5457;DHT22;2751;49.802;9.944;2023-02-13T09:41:40;3.70;30.60
5457;DHT22;2751;49.802;9.944;2023-02-13T09:44:12;3.80;98.80
5457;DHT22;2751;49.802;9.944;2023-02-13T09:47:02;4.00;1.00
5457;DHT22;2751;49.802;9.944;2023-02-13T09:49:34;4.00;1.00
5457;DHT22;2751;49.802;9.944;2023-02-13T09:52:02;3.90;1.00
5457;DHT22;2751;49.802;9.944;2023-02-13T09:54:29;4.20;1.00
5457;DHT22;2751;49.802;9.944;2023-02-13T09:56:59;4.50;99.90
5457;DHT22;2751;49.802;9.944;2023-02-13T09:59:36;4.50;94.70
5457;DHT22;2751;49.802;9.944;2023-02-13T10:02:21;4.70;1.00
5457;DHT22;2751;49.802;9.944;2023-02-13T10:04:55;4.90;1.00
5457;DHT22;2751;49.802;9.944;2023-02-13T10:07:30;5.00;99.90
5457;DHT22;2751;49.802;9.944;2023-02-13T10:10:01;4.90;99.90
5457;DHT22;2751;49.802;9.944;2023-02-13T10:12:36;4.80;99.90
5457;DHT22;2751;49.802;9.944;2023-02-13T10:15:16;4.50;99.90
5457;DHT22;2751;49.802;9.944;2023-02-13T10:17:53;4.50;1.00
5457;DHT22;2751;49.802;9.944;2023-02-13T10:20:26;4.30;1.00
5457;DHT22;2751;49.802;9.944;2023-02-13T10:22:57;4.30;99.90
5457;DHT22;2751;49.802;9.944;2023-02-13T10:25:27;4.60;1.00
5457;DHT22;2751;49.802;9.944;2023-02-13T10:27:59;4.80;1.00
5457;DHT22;2751;49.802;9.944;2023-02-13T10:30:29;5.00;1.00
5457;DHT22;2751;49.802;9.944;2023-02-13T10:33:01;5.10;99.90
5457;DHT22;2751;49.802;9.944;2023-02-13T10:35:49;5.30;99.90
5457;DHT22;2751;49.802;9.944;2023-02-13T10:38:19;5.20;99.90
5457;DHT22;2751;49.802;9.944;2023-02-13T10:41:14;5.40;99.90
5457;DHT22;2751;49.802;9.944;2023-02-13T10:43:48;5.40;99.90
5457;DHT22;2751;49.802;9.944;2023-02-13T10:46:23;5.40;99.90
5457;DHT22;2751;49.802;9.944;2023-02-13T10:49:19;5.60;99.90
5457;DHT22;2751;49.802;9.944;2023-02-13T10:51:54;6.00;99.90
5457;DHT22;2751;49.802;9.944;2023-02-13T10:54:39;5.70;1.00
5457;DHT22;2751;49.802;9.944;2023-02-13T10:57:15;5.80;1.00
5457;DHT22;2751;49.802;9.944;2023-02-13T10:59:55;6.00;99.90
5457;DHT22;2751;49.802;9.944;2023-02-13T11:02:28;6.10;1.00
5457;DHT22;2751;49.802;9.944;2023-02-13T11:04:59;6.10;1.00
5457;DHT22;2751;49.802;9.944;2023-02-13T11:07:28;6.30;1.00
5457;DHT22;2751;49.802;9.944;2023-02-13T11:09:59;6.30;21.00
5457;DHT22;2751;49.802;9.944;2023-02-13T11:12:29;6.30;99.90
5457;DHT22;2751;49.802;9.944;2023-02-13T11:14:57;6.40;1.00
5457;DHT22;2751;49.802;9.944;2023-02-13T11:17:28;6.90;1.00
5457;DHT22;2751;49.802;9.944;2023-02-13T11:19:58;6.40;16.20
5457;DHT22;2751;49.802;9.944;2023-02-13T11:22:30;6.40;1.00
5457;DHT22;2751;49.802;9.944;2023-02-13T11:25:00;6.30;1.00
5457;DHT22;2751;49.802;9.944;2023-02-13T11:27:31;6.10;1.00
5457;DHT22;2751;49.802;9.944;2023-02-13T11:30:00;6.00;1.00
5457;DHT22;2751;49.802;9.944;2023-02-13T11:32:29;6.20;1.00
5457;DHT22;2751;49.802;9.944;2023-02-13T11:34:56;6.20;99.90
5457;DHT22;2751;49.802;9.944;2023-02-13T11:37:27;6.50;99.90
5457;DHT22;2751;49.802;9.944;2023-02-13T11:39:56;6.70;99.90
5457;DHT22;2751;49.802;9.944;2023-02-13T11:42:27;6.50;99.90
5457;DHT22;2751;49.802;9.944;2023-02-13T11:44:58;6.70;99.90
5457;DHT22;2751;49.802;9.944;2023-02-13T11:47:34;6.70;99.90
5457;DHT22;2751;49.802;9.944;2023-02-13T11:50:01;7.10;1.00
5457;DHT22;2751;49.802;9.944;2023-02-13T11:52:34;7.00;1.00
5457;DHT22;2751;49.802;9.944;2023-02-13T11:55:03;7.10;99.90
5457;DHT22;2751;49.802;9.944;2023-02-13T11:57:32;7.00;99.90
5457;DHT22;2751;49.802;9.944;2023-02-13T12:00:01;7.10;99.90
5457;DHT22;2751;49.802;9.944;2023-02-13T12:02:47;7.10;99.90
5457;DHT22;2751;49.802;9.944;2023-02-13T12:05:17;7.40;1.00
5457;DHT22;2751;49.802;9.944;2023-02-13T12:07:46;7.60;1.00
5457;DHT22;2751;49.802;9.944;2023-02-13T12:10:23;8.00;1.00
5457;DHT22;2751;49.802;9.944;2023-02-13T12:12:53;8.10;1.00
5457;DHT22;2751;49.802;9.944;2023-02-13T12:15:23;8.00;53.40
5457;DHT22;2751;49.802;9.944;2023-02-13T12:18:01;8.00;1.00
5457;DHT22;2751;49.802;9.944;2023-02-13T12:20:35;8.00;99.90
5457;DHT22;2751;49.802;9.944;2023-02-13T12:23:11;7.90;1.00
5457;DHT22;2751;49.802;9.944;2023-02-13T12:25:52;8.10;99.90
5457;DHT22;2751;49.802;9.944;2023-02-13T12:28:27;8.20;1.00
5457;DHT22;2751;49.802;9.944;2023-02-13T12:31:12;8.50;99.90
5457;DHT22;2751;49.802;9.944;2023-02-13T12:37:18;8.90;1.00
5457;DHT22;2751;49.802;9.944;2023-02-13T12:39:57;8.80;1.00
5457;DHT22;2751;49.802;9.944;2023-02-13T12:42:36;8.80;1.00
5457;DHT22;2751;49.802;9.944;2023-02-13T12:45:23;8.90;1.00
5457;DHT22;2751;49.802;9.944;2023-02-13T12:48:03;8.90;1.00
5457;DHT22;2751;49.802;9.944;2023-02-13T12:50:56;8.80;8.90
5457;DHT22;2751;49.802;9.944;2023-02-13T12:53:41;8.60;1.00
5457;DHT22;2751;49.802;9.944;2023-02-13T12:56:34;8.20;1.00
5457;DHT22;2751;49.802;9.944;2023-02-13T12:59:08;7.90;3.60
5457;DHT22;2751;49.802;9.944;2023-02-13T13:02:01;7.80;1.00
5457;DHT22;2751;49.802;9.944;2023-02-13T13:04:41;7.50;8.90
5457;DHT22;2751;49.802;9.944;2023-02-13T13:07:27;7.20;5.60
5457;DHT22;2751;49.802;9.944;2023-02-13T13:10:17;7.20;1.00
5457;DHT22;2751;49.802;9.944;2023-02-13T13:12:53;7.10;1.00
5457;DHT22;2751;49.802;9.944;2023-02-13T13:15:29;7.00;1.00
5457;DHT22;2751;49.802;9.944;2023-02-13T13:18:06;6.90;1.00
5457;DHT22;2751;49.802;9.944;2023-02-13T13:23:27;7.30;99.90
5457;DHT22;2751;49.802;9.944;2023-02-13T13:26:02;6.90;99.90
5457;DHT22;2751;49.802;9.944;2023-02-13T13:28:33;6.80;30.80
5457;DHT22;2751;49.802;9.944;2023-02-13T13:31:02;6.90;1.00
5457;DHT22;2751;49.802;9.944;2023-02-13T13:33:30;7.00;1.00
5457;DHT22;2751;49.802;9.944;2023-02-13T13:36:04;6.90;99.90
5457;DHT22;2751;49.802;9.944;2023-02-13T13:38:44;6.90;3.00
5457;DHT22;2751;49.802;9.944;2023-02-13T13:41:20;6.90;99.90
5457;DHT22;2751;49.802;9.944;2023-02-13T13:44:00;7.00;99.90
5457;DHT22;2751;49.802;9.944;2023-02-13T13:46:39;7.00;99.90
5457;DHT22;2751;49.802;9.944;2023-02-13T13:49:21;7.00;12.60
5457;DHT22;2751;49.802;9.944;2023-02-13T13:51:53;7.10;1.00
5457;DHT22;2751;49.802;9.944;2023-02-13T13:54:31;7.10;99.90
5457;DHT22;2751;49.802;9.944;2023-02-13T13:57:07;7.10;99.90
5457;DHT22;2751;49.802;9.944;2023-02-13T14:03:33;7.20;99.90
5457;DHT22;2751;49.802;9.944;2023-02-13T14:06:05;7.20;1.00
5457;DHT22;2751;49.802;9.944;2023-02-13T14:09:08;7.20;1.00
5457;DHT22;2751;49.802;9.944;2023-02-13T14:11:55;7.20;1.00
5457;DHT22;2751;49.802;9.944;2023-02-13T14:17:14;7.30;1.00
5457;DHT22;2751;49.802;9.944;2023-02-13T14:19:48;7.30;99.90
5457;DHT22;2751;49.802;9.944;2023-02-13T14:22:33;7.40;99.90
5457;DHT22;2751;49.802;9.944;2023-02-13T14:25:03;7.50;99.90
5457;DHT22;2751;49.802;9.944;2023-02-13T14:27:34;7.50;99.90
5457;DHT22;2751;49.802;9.944;2023-02-13T14:30:04;7.50;99.90
5457;DHT22;2751;49.802;9.944;2023-02-13T14:32:33;7.50;1.00
5457;DHT22;2751;49.802;9.944;2023-02-13T14:35:05;7.50;1.00
5457;DHT22;2751;49.802;9.944;2023-02-13T14:37:47;7.50;99.90
5457;DHT22;2751;49.802;9.944;2023-02-13T14:40:41;7.50;1.00
5457;DHT22;2751;49.802;9.944;2023-02-13T14:43:32;7.60;1.00
5457;DHT22;2751;49.802;9.944;2023-02-13T14:46:07;7.60;1.00
5457;DHT22;2751;49.802;9.944;2023-02-13T14:48:39;7.60;99.90
5457;DHT22;2751;49.802;9.944;2023-02-13T14:51:14;7.60;99.90
5457;DHT22;2751;49.802;9.944;2023-02-13T14:53:48;7.60;1.00
5457;DHT22;2751;49.802;9.944;2023-02-13T14:56:19;7.60;85.10
5457;DHT22;2751;49.802;9.944;2023-02-13T14:58:52;7.60;1.00
5457;DHT22;2751;49.802;9.944;2023-02-13T15:01:27;7.60;99.90
5457;DHT22;2751;49.802;9.944;2023-02-13T15:03:58;7.70;1.00
5457;DHT22;2751;49.802;9.944;2023-02-13T15:06:33;7.70;1.00
5457;DHT22;2751;49.802;9.944;2023-02-13T15:09:02;7.70;1.00
5457;DHT22;2751;49.802;9.944;2023-02-13T15:11:35;7.70;99.90
5457;DHT22;2751;49.802;9.944;2023-02-13T15:14:27;7.70;99.90
5457;DHT22;2751;49.802;9.944;2023-02-13T15:17:00;7.60;99.90
5457;DHT22;2751;49.802;9.944;2023-02-13T15:19:30;8.00;99.90
5457;DHT22;2751;49.802;9.944;2023-02-13T15:22:00;7.70;1.00
5457;DHT22;2751;49.802;9.944;2023-02-13T15:24:36;7.70;76.90
5457;DHT22;2751;49.802;9.944;2023-02-13T15:27:06;7.50;1.00
5457;DHT22;2751;49.802;9.944;2023-02-13T15:29:34;7.60;99.90
5457;DHT22;2751;49.802;9.944;2023-02-13T15:32:17;7.60;99.90
5457;DHT22;2751;49.802;9.944;2023-02-13T15:34:45;7.60;99.90
5457;DHT22;2751;49.802;9.944;2023-02-13T15:37:20;7.60;99.90
5457;DHT22;2751;49.802;9.944;2023-02-13T15:39:46;7.50;99.90
5457;DHT22;2751;49.802;9.944;2023-02-13T15:42:13;7.50;1.00
5457;DHT22;2751;49.802;9.944;2023-02-13T15:44:44;7.90;1.00
5457;DHT22;2751;49.802;9.944;2023-02-13T15:47:16;7.90;1.00
5457;DHT22;2751;49.802;9.944;2023-02-13T15:49:45;7.80;99.90
5457;DHT22;2751;49.802;9.944;2023-02-13T15:52:18;7.40;1.00
5457;DHT22;2751;49.802;9.944;2023-02-13T15:54:49;7.80;1.00
5457;DHT22;2751;49.802;9.944;2023-02-13T15:57:17;7.40;1.00
5457;DHT22;2751;49.802;9.944;2023-02-13T15:59:46;7.40;1.00
5457;DHT22;2751;49.802;9.944;2023-02-13T16:02:17;7.40;1.00
5457;DHT22;2751;49.802;9.944;2023-02-13T16:04:48;7.50;1.00
5457;DHT22;2751;49.802;9.944;2023-02-13T16:07:16;7.30;1.00
5457;DHT22;2751;49.802;9.944;2023-02-13T16:09:43;6.90;1.00
5457;DHT22;2751;49.802;9.944;2023-02-13T16:12:18;7.20;1.00
5457;DHT22;2751;49.802;9.944;2023-02-13T16:14:51;7.20;1.00
5457;DHT22;2751;49.802;9.944;2023-02-13T16:17:25;7.10;61.60
5457;DHT22;2751;49.802;9.944;2023-02-13T16:19:56;7.10;99.90
5457;DHT22;2751;49.802;9.944;2023-02-13T16:22:30;7.10;99.90
5457;DHT22;2751;49.802;9.944;2023-02-13T16:25:13;7.10;99.90
5457;DHT22;2751;49.802;9.944;2023-02-13T16:27:43;7.00;99.90
5457;DHT22;2751;49.802;9.944;2023-02-13T16:30:28;6.50;99.90
5457;DHT22;2751;49.802;9.944;2023-02-13T16:33:21;6.80;99.90
5457;DHT22;2751;49.802;9.944;2023-02-13T16:35:51;6.70;1.00
5457;DHT22;2751;49.802;9.944;2023-02-13T16:38:29;6.60;1.00
5457;DHT22;2751;49.802;9.944;2023-02-13T16:40:57;6.70;1.00
5457;DHT22;2751;49.802;9.944;2023-02-13T16:43:38;6.50;99.90
5457;DHT22;2751;49.802;9.944;2023-02-13T16:46:31;6.40;99.90
5457;DHT22;2751;49.802;9.944;2023-02-13T16:49:14;6.30;1.00
5457;DHT22;2751;49.802;9.944;2023-02-13T16:51:43;6.20;21.60
5457;DHT22;2751;49.802;9.944;2023-02-13T16:57:01;6.00;1.00
5457;DHT22;2751;49.802;9.944;2023-02-13T16:59:34;6.00;99.90
5457;DHT22;2751;49.802;9.944;2023-02-13T17:02:13;6.00;99.90
5457;DHT22;2751;49.802;9.944;2023-02-13T17:04:45;6.30;99.90
5457;DHT22;2751;49.802;9.944;2023-02-13T17:07:14;5.80;99.90
5457;DHT22;2751;49.802;9.944;2023-02-13T17:09:42;5.80;99.90
5457;DHT22;2751;49.802;9.944;2023-02-13T17:12:14;5.70;99.90
5457;DHT22;2751;49.802;9.944;2023-02-13T17:14:41;5.70;99.90
5457;DHT22;2751;49.802;9.944;2023-02-13T17:17:12;5.60;99.90
5457;DHT22;2751;49.802;9.944;2023-02-13T17:19:39;5.50;1.00
5457;DHT22;2751;49.802;9.944;2023-02-13T17:22:06;5.50;1.00
5457;DHT22;2751;49.802;9.944;2023-02-13T17:24:33;5.50;1.00